sensor_id;sensor_type;location;lat;lon;timestamp;P1;durP1;ratioP1;P2;durP2;ratioP2
31910;SDS011;18457;52.432;16.914;2022-08-19T00:01:40;22.90;;;18.50;;
31910;SDS011;18457;52.432;16.914;2022-08-19T00:04:21;24.10;;;17.90;;
31910;SDS011;18457;52.432;16.914;2022-08-19T00:06:56;18.70;;;16.60;;
31910;SDS011;18457;52.432;16.914;2022-08-19T00:09:28;20.40;;;16.80;;
31910;SDS011;18457;52.432;16.914;2022-08-19T00:12:00;22.20;;;17.00;;
31910;SDS011;18457;52.432;16.914;2022-08-19T00:14:33;22.30;;;17.50;;
31910;SDS011;18457;52.432;16.914;2022-08-19T00:17:05;25.30;;;18.10;;
31910;SDS011;18457;52.432;16.914;2022-08-19T00:19:37;22.80;;;16.70;;
31910;SDS011;18457;52.432;16.914;2022-08-19T00:22:10;19.50;;;17.40;;
31910;SDS011;18457;52.432;16.914;2022-08-19T00:24:42;23.80;;;16.90;;
31910;SDS011;18457;52.432;16.914;2022-08-19T00:27:19;20.10;;;16.90;;
31910;SDS011;18457;52.432;16.914;2022-08-19T00:29:56;23.40;;;18.00;;
31910;SDS011;18457;52.432;16.914;2022-08-19T00:32:28;20.10;;;17.50;;
31910;SDS011;18457;52.432;16.914;2022-08-19T00:35:02;24.60;;;17.60;;
31910;SDS011;18457;52.432;16.914;2022-08-19T00:37:34;22.20;;;16.60;;
31910;SDS011;18457;52.432;16.914;2022-08-19T00:42:38;18.90;;;16.90;;
31910;SDS011;18457;52.432;16.914;2022-08-19T00:45:11;23.50;;;17.00;;
31910;SDS011;18457;52.432;16.914;2022-08-19T00:47:46;19.30;;;17.40;;
31910;SDS011;18457;52.432;16.914;2022-08-19T00:50:19;24.10;;;17.90;;
31910;SDS011;18457;52.432;16.914;2022-08-19T00:52:51;23.30;;;16.90;;
31910;SDS011;18457;52.432;16.914;2022-08-19T00:55:25;20.70;;;17.50;;
31910;SDS011;18457;52.432;16.914;2022-08-19T00:58:00;27.30;;;17.20;;
31910;SDS011;18457;52.432;16.914;2022-08-19T01:00:34;19.30;;;16.70;;
31910;SDS011;18457;52.432;16.914;2022-08-19T01:03:07;18.00;;;15.60;;
31910;SDS011;18457;52.432;16.914;2022-08-19T01:05:41;23.70;;;16.00;;
31910;SDS011;18457;52.432;16.914;2022-08-19T01:08:15;22.70;;;16.20;;
31910;SDS011;18457;52.432;16.914;2022-08-19T01:10:49;21.30;;;16.50;;
31910;SDS011;18457;52.432;16.914;2022-08-19T01:13:24;19.90;;;15.60;;
31910;SDS011;18457;52.432;16.914;2022-08-19T01:16:19;18.80;;;16.80;;
31910;SDS011;18457;52.432;16.914;2022-08-19T01:18:54;18.90;;;15.10;;
31910;SDS011;18457;52.432;16.914;2022-08-19T01:21:27;22.60;;;16.50;;
31910;SDS011;18457;52.432;16.914;2022-08-19T01:24:04;19.00;;;16.20;;
31910;SDS011;18457;52.432;16.914;2022-08-19T01:26:39;19.20;;;17.00;;
31910;SDS011;18457;52.432;16.914;2022-08-19T01:29:14;23.00;;;17.20;;
31910;SDS011;18457;52.432;16.914;2022-08-19T01:31:48;27.00;;;16.80;;
31910;SDS011;18457;52.432;16.914;2022-08-19T01:34:22;18.70;;;16.80;;
31910;SDS011;18457;52.432;16.914;2022-08-19T01:36:53;25.30;;;15.20;;
31910;SDS011;18457;52.432;16.914;2022-08-19T01:39:25;19.70;;;15.90;;
31910;SDS011;18457;52.432;16.914;2022-08-19T01:41:58;18.60;;;15.60;;
31910;SDS011;18457;52.432;16.914;2022-08-19T01:44:31;19.10;;;16.10;;
31910;SDS011;18457;52.432;16.914;2022-08-19T01:47:05;30.00;;;16.70;;
31910;SDS011;18457;52.432;16.914;2022-08-19T01:49:39;20.50;;;15.50;;
31910;SDS011;18457;52.432;16.914;2022-08-19T01:52:10;17.20;;;14.70;;
31910;SDS011;18457;52.432;16.914;2022-08-19T01:54:42;25.70;;;16.30;;
31910;SDS011;18457;52.432;16.914;2022-08-19T01:57:14;18.30;;;13.90;;
31910;SDS011;18457;52.432;16.914;2022-08-19T01:59:46;24.10;;;16.30;;
31910;SDS011;18457;52.432;16.914;2022-08-19T02:02:19;20.40;;;14.80;;
31910;SDS011;18457;52.432;16.914;2022-08-19T02:04:50;20.10;;;15.10;;
31910;SDS011;18457;52.432;16.914;2022-08-19T02:07:22;20.70;;;15.90;;
31910;SDS011;18457;52.432;16.914;2022-08-19T02:09:54;16.80;;;14.60;;
31910;SDS011;18457;52.432;16.914;2022-08-19T02:12:30;20.50;;;16.20;;
31910;SDS011;18457;52.432;16.914;2022-08-19T02:15:06;21.80;;;14.80;;
31910;SDS011;18457;52.432;16.914;2022-08-19T02:17:39;28.30;;;16.60;;
31910;SDS011;18457;52.432;16.914;2022-08-19T02:20:12;18.80;;;15.30;;
31910;SDS011;18457;52.432;16.914;2022-08-19T02:22:44;18.20;;;16.30;;
31910;SDS011;18457;52.432;16.914;2022-08-19T02:25:16;20.10;;;17.30;;
31910;SDS011;18457;52.432;16.914;2022-08-19T02:27:48;17.60;;;15.40;;
31910;SDS011;18457;52.432;16.914;2022-08-19T02:30:20;21.20;;;15.90;;
31910;SDS011;18457;52.432;16.914;2022-08-19T02:32:53;21.50;;;14.70;;
31910;SDS011;18457;52.432;16.914;2022-08-19T02:35:25;19.10;;;15.80;;
31910;SDS011;18457;52.432;16.914;2022-08-19T02:37:57;17.80;;;15.20;;
31910;SDS011;18457;52.432;16.914;2022-08-19T02:40:49;18.30;;;16.10;;
31910;SDS011;18457;52.432;16.914;2022-08-19T02:43:23;20.70;;;16.10;;
31910;SDS011;18457;52.432;16.914;2022-08-19T02:45:56;22.10;;;15.50;;
31910;SDS011;18457;52.432;16.914;2022-08-19T02:48:29;17.10;;;15.30;;
31910;SDS011;18457;52.432;16.914;2022-08-19T02:51:02;20.60;;;15.70;;
31910;SDS011;18457;52.432;16.914;2022-08-19T02:53:34;16.70;;;14.90;;
31910;SDS011;18457;52.432;16.914;2022-08-19T02:56:07;17.00;;;15.20;;
31910;SDS011;18457;52.432;16.914;2022-08-19T02:58:39;18.30;;;16.20;;
31910;SDS011;18457;52.432;16.914;2022-08-19T03:01:18;20.50;;;15.20;;
31910;SDS011;18457;52.432;16.914;2022-08-19T03:03:52;21.20;;;17.00;;
31910;SDS011;18457;52.432;16.914;2022-08-19T03:06:24;18.10;;;15.10;;
31910;SDS011;18457;52.432;16.914;2022-08-19T03:08:56;17.40;;;15.70;;
31910;SDS011;18457;52.432;16.914;2022-08-19T03:11:29;19.20;;;16.70;;
31910;SDS011;18457;52.432;16.914;2022-08-19T03:14:02;24.20;;;16.10;;
31910;SDS011;18457;52.432;16.914;2022-08-19T03:16:42;19.00;;;16.00;;
31910;SDS011;18457;52.432;16.914;2022-08-19T03:19:21;21.90;;;15.40;;
31910;SDS011;18457;52.432;16.914;2022-08-19T03:21:53;34.30;;;15.30;;
31910;SDS011;18457;52.432;16.914;2022-08-19T03:24:25;18.70;;;14.40;;
31910;SDS011;18457;52.432;16.914;2022-08-19T03:26:57;20.90;;;15.80;;
31910;SDS011;18457;52.432;16.914;2022-08-19T03:29:29;18.30;;;14.60;;
31910;SDS011;18457;52.432;16.914;2022-08-19T03:32:10;18.40;;;16.60;;
31910;SDS011;18457;52.432;16.914;2022-08-19T03:35:00;17.80;;;15.90;;
31910;SDS011;18457;52.432;16.914;2022-08-19T03:37:32;20.10;;;15.50;;
31910;SDS011;18457;52.432;16.914;2022-08-19T03:40:05;21.60;;;15.60;;
31910;SDS011;18457;52.432;16.914;2022-08-19T03:42:44;22.70;;;16.70;;
31910;SDS011;18457;52.432;16.914;2022-08-19T03:45:17;18.30;;;16.40;;
31910;SDS011;18457;52.432;16.914;2022-08-19T03:47:49;21.40;;;17.10;;
31910;SDS011;18457;52.432;16.914;2022-08-19T03:50:22;21.10;;;16.50;;
31910;SDS011;18457;52.432;16.914;2022-08-19T03:55:24;18.80;;;16.10;;
31910;SDS011;18457;52.432;16.914;2022-08-19T03:57:56;20.40;;;17.80;;
31910;SDS011;18457;52.432;16.914;2022-08-19T04:00:28;19.30;;;16.60;;
31910;SDS011;18457;52.432;16.914;2022-08-19T04:02:59;22.50;;;16.50;;
31910;SDS011;18457;52.432;16.914;2022-08-19T04:05:31;17.90;;;16.10;;
31910;SDS011;18457;52.432;16.914;2022-08-19T04:08:03;18.00;;;15.60;;
31910;SDS011;18457;52.432;16.914;2022-08-19T04:10:41;20.90;;;16.80;;
31910;SDS011;18457;52.432;16.914;2022-08-19T04:13:13;18.30;;;16.20;;
31910;SDS011;18457;52.432;16.914;2022-08-19T04:15:45;26.10;;;17.00;;
31910;SDS011;18457;52.432;16.914;2022-08-19T04:18:17;18.50;;;16.50;;
31910;SDS011;18457;52.432;16.914;2022-08-19T04:20:49;19.20;;;17.20;;
31910;SDS011;18457;52.432;16.914;2022-08-19T04:23:21;19.60;;;16.90;;
31910;SDS011;18457;52.432;16.914;2022-08-19T04:25:53;22.00;;;15.20;;
31910;SDS011;18457;52.432;16.914;2022-08-19T04:30:56;20.70;;;15.60;;
31910;SDS011;18457;52.432;16.914;2022-08-19T04:33:27;20.20;;;17.00;;
31910;SDS011;18457;52.432;16.914;2022-08-19T04:36:00;19.90;;;16.90;;
31910;SDS011;18457;52.432;16.914;2022-08-19T04:38:32;21.40;;;16.50;;
31910;SDS011;18457;52.432;16.914;2022-08-19T04:41:04;20.90;;;17.30;;
31910;SDS011;18457;52.432;16.914;2022-08-19T04:43:53;26.70;;;17.60;;
31910;SDS011;18457;52.432;16.914;2022-08-19T04:46:32;21.90;;;16.70;;
31910;SDS011;18457;52.432;16.914;2022-08-19T04:49:20;23.90;;;17.30;;
31910;SDS011;18457;52.432;16.914;2022-08-19T04:51:53;17.90;;;15.80;;
31910;SDS011;18457;52.432;16.914;2022-08-19T04:57:07;22.20;;;17.20;;
31910;SDS011;18457;52.432;16.914;2022-08-19T04:59:39;20.00;;;16.20;;
31910;SDS011;18457;52.432;16.914;2022-08-19T05:02:11;19.80;;;16.60;;
31910;SDS011;18457;52.432;16.914;2022-08-19T05:04:43;22.20;;;17.20;;
31910;SDS011;18457;52.432;16.914;2022-08-19T05:07:14;31.10;;;17.10;;
31910;SDS011;18457;52.432;16.914;2022-08-19T05:09:46;23.70;;;18.00;;
31910;SDS011;18457;52.432;16.914;2022-08-19T05:12:26;23.70;;;16.50;;
31910;SDS011;18457;52.432;16.914;2022-08-19T05:17:29;22.40;;;18.80;;
31910;SDS011;18457;52.432;16.914;2022-08-19T05:20:07;23.90;;;17.00;;
31910;SDS011;18457;52.432;16.914;2022-08-19T05:23:06;22.60;;;17.30;;
31910;SDS011;18457;52.432;16.914;2022-08-19T05:25:51;22.30;;;17.00;;
31910;SDS011;18457;52.432;16.914;2022-08-19T05:28:23;24.10;;;17.70;;
31910;SDS011;18457;52.432;16.914;2022-08-19T05:33:25;23.20;;;18.00;;
31910;SDS011;18457;52.432;16.914;2022-08-19T05:35:57;24.80;;;17.40;;
31910;SDS011;18457;52.432;16.914;2022-08-19T05:38:31;23.60;;;17.90;;
31910;SDS011;18457;52.432;16.914;2022-08-19T05:41:07;23.20;;;18.20;;
31910;SDS011;18457;52.432;16.914;2022-08-19T05:43:39;20.80;;;16.50;;
31910;SDS011;18457;52.432;16.914;2022-08-19T05:46:13;26.50;;;18.30;;
31910;SDS011;18457;52.432;16.914;2022-08-19T05:48:56;20.80;;;17.00;;
31910;SDS011;18457;52.432;16.914;2022-08-19T05:51:27;24.20;;;17.10;;
31910;SDS011;18457;52.432;16.914;2022-08-19T05:54:00;21.60;;;17.40;;
31910;SDS011;18457;52.432;16.914;2022-08-19T05:56:32;21.50;;;17.30;;
31910;SDS011;18457;52.432;16.914;2022-08-19T05:59:07;18.50;;;16.40;;
31910;SDS011;18457;52.432;16.914;2022-08-19T06:01:41;24.10;;;17.50;;
31910;SDS011;18457;52.432;16.914;2022-08-19T06:04:14;30.20;;;17.90;;
31910;SDS011;18457;52.432;16.914;2022-08-19T06:06:47;19.90;;;16.40;;
31910;SDS011;18457;52.432;16.914;2022-08-19T06:09:21;21.20;;;16.70;;
31910;SDS011;18457;52.432;16.914;2022-08-19T06:11:55;26.10;;;17.50;;
31910;SDS011;18457;52.432;16.914;2022-08-19T06:14:29;20.70;;;17.50;;
31910;SDS011;18457;52.432;16.914;2022-08-19T06:17:08;29.30;;;15.90;;
31910;SDS011;18457;52.432;16.914;2022-08-19T06:19:40;26.50;;;17.90;;
31910;SDS011;18457;52.432;16.914;2022-08-19T06:22:12;23.60;;;16.60;;
31910;SDS011;18457;52.432;16.914;2022-08-19T06:24:44;19.20;;;15.50;;
31910;SDS011;18457;52.432;16.914;2022-08-19T06:27:16;19.00;;;17.00;;
31910;SDS011;18457;52.432;16.914;2022-08-19T06:29:48;24.90;;;17.30;;
31910;SDS011;18457;52.432;16.914;2022-08-19T06:32:20;27.60;;;17.50;;
31910;SDS011;18457;52.432;16.914;2022-08-19T06:34:52;24.70;;;16.40;;
31910;SDS011;18457;52.432;16.914;2022-08-19T06:37:24;22.50;;;17.60;;
31910;SDS011;18457;52.432;16.914;2022-08-19T06:39:55;22.20;;;16.90;;
31910;SDS011;18457;52.432;16.914;2022-08-19T06:42:27;24.60;;;17.00;;
31910;SDS011;18457;52.432;16.914;2022-08-19T06:45:00;24.10;;;16.60;;
31910;SDS011;18457;52.432;16.914;2022-08-19T06:47:37;19.40;;;15.70;;
31910;SDS011;18457;52.432;16.914;2022-08-19T06:50:10;26.30;;;17.50;;
31910;SDS011;18457;52.432;16.914;2022-08-19T06:52:42;20.70;;;17.10;;
31910;SDS011;18457;52.432;16.914;2022-08-19T06:55:16;31.50;;;18.40;;
31910;SDS011;18457;52.432;16.914;2022-08-19T06:57:48;27.80;;;17.90;;
31910;SDS011;18457;52.432;16.914;2022-08-19T07:00:22;23.90;;;16.40;;
31910;SDS011;18457;52.432;16.914;2022-08-19T07:02:54;29.70;;;16.80;;
31910;SDS011;18457;52.432;16.914;2022-08-19T07:05:34;26.70;;;18.00;;
31910;SDS011;18457;52.432;16.914;2022-08-19T07:08:14;23.80;;;17.50;;
31910;SDS011;18457;52.432;16.914;2022-08-19T07:13:17;24.10;;;16.90;;
31910;SDS011;18457;52.432;16.914;2022-08-19T07:15:51;20.50;;;17.30;;
31910;SDS011;18457;52.432;16.914;2022-08-19T07:18:22;23.30;;;16.90;;
31910;SDS011;18457;52.432;16.914;2022-08-19T07:23:37;23.30;;;16.80;;
31910;SDS011;18457;52.432;16.914;2022-08-19T07:26:10;23.90;;;17.80;;
31910;SDS011;18457;52.432;16.914;2022-08-19T07:28:44;22.00;;;17.60;;
31910;SDS011;18457;52.432;16.914;2022-08-19T07:31:21;20.40;;;17.60;;
31910;SDS011;18457;52.432;16.914;2022-08-19T07:33:59;25.00;;;17.60;;
31910;SDS011;18457;52.432;16.914;2022-08-19T07:36:31;20.40;;;17.50;;
31910;SDS011;18457;52.432;16.914;2022-08-19T07:39:04;28.70;;;17.70;;
31910;SDS011;18457;52.432;16.914;2022-08-19T07:41:39;24.60;;;18.40;;
31910;SDS011;18457;52.432;16.914;2022-08-19T07:44:12;23.00;;;17.60;;
31910;SDS011;18457;52.432;16.914;2022-08-19T07:46:45;19.60;;;17.10;;
31910;SDS011;18457;52.432;16.914;2022-08-19T07:49:22;20.30;;;17.10;;
31910;SDS011;18457;52.432;16.914;2022-08-19T07:51:55;24.10;;;17.90;;
31910;SDS011;18457;52.432;16.914;2022-08-19T07:54:30;20.30;;;17.60;;
31910;SDS011;18457;52.432;16.914;2022-08-19T07:57:04;23.00;;;17.90;;
31910;SDS011;18457;52.432;16.914;2022-08-19T07:59:37;25.70;;;18.70;;
31910;SDS011;18457;52.432;16.914;2022-08-19T08:02:09;23.50;;;19.10;;
31910;SDS011;18457;52.432;16.914;2022-08-19T08:04:41;29.40;;;18.60;;
31910;SDS011;18457;52.432;16.914;2022-08-19T08:07:30;257.00;;;31.50;;
31910;SDS011;18457;52.432;16.914;2022-08-19T08:10:20;53.10;;;19.10;;
31910;SDS011;18457;52.432;16.914;2022-08-19T08:12:52;24.70;;;19.10;;
31910;SDS011;18457;52.432;16.914;2022-08-19T08:15:39;24.30;;;19.20;;
31910;SDS011;18457;52.432;16.914;2022-08-19T08:18:13;20.70;;;18.30;;
31910;SDS011;18457;52.432;16.914;2022-08-19T08:20:45;25.00;;;20.20;;
31910;SDS011;18457;52.432;16.914;2022-08-19T08:25:56;24.80;;;19.40;;
31910;SDS011;18457;52.432;16.914;2022-08-19T08:28:31;23.50;;;18.90;;
31910;SDS011;18457;52.432;16.914;2022-08-19T08:31:03;22.20;;;18.50;;
31910;SDS011;18457;52.432;16.914;2022-08-19T08:33:37;21.00;;;18.50;;
31910;SDS011;18457;52.432;16.914;2022-08-19T08:36:11;25.60;;;20.00;;
31910;SDS011;18457;52.432;16.914;2022-08-19T08:38:44;25.80;;;19.60;;
31910;SDS011;18457;52.432;16.914;2022-08-19T08:41:19;27.60;;;19.90;;
31910;SDS011;18457;52.432;16.914;2022-08-19T08:43:58;23.80;;;20.80;;
31910;SDS011;18457;52.432;16.914;2022-08-19T08:46:36;27.90;;;19.90;;
31910;SDS011;18457;52.432;16.914;2022-08-19T08:49:15;25.30;;;20.40;;
31910;SDS011;18457;52.432;16.914;2022-08-19T08:51:58;26.20;;;19.30;;
31910;SDS011;18457;52.432;16.914;2022-08-19T08:54:35;32.00;;;19.80;;
31910;SDS011;18457;52.432;16.914;2022-08-19T08:57:27;28.10;;;21.40;;
31910;SDS011;18457;52.432;16.914;2022-08-19T09:00:10;24.10;;;19.70;;
31910;SDS011;18457;52.432;16.914;2022-08-19T09:02:47;24.90;;;20.10;;
31910;SDS011;18457;52.432;16.914;2022-08-19T09:07:56;23.80;;;19.20;;
31910;SDS011;18457;52.432;16.914;2022-08-19T09:10:34;28.20;;;20.80;;
31910;SDS011;18457;52.432;16.914;2022-08-19T09:13:14;24.90;;;18.50;;
31910;SDS011;18457;52.432;16.914;2022-08-19T09:15:54;26.20;;;19.30;;
31910;SDS011;18457;52.432;16.914;2022-08-19T09:18:36;31.60;;;19.10;;
31910;SDS011;18457;52.432;16.914;2022-08-19T09:21:11;23.30;;;19.10;;
31910;SDS011;18457;52.432;16.914;2022-08-19T09:23:43;27.60;;;19.20;;
31910;SDS011;18457;52.432;16.914;2022-08-19T09:26:19;24.90;;;19.70;;
31910;SDS011;18457;52.432;16.914;2022-08-19T09:29:13;27.50;;;19.50;;
31910;SDS011;18457;52.432;16.914;2022-08-19T09:31:45;24.30;;;19.80;;
31910;SDS011;18457;52.432;16.914;2022-08-19T09:34:18;22.40;;;19.70;;
31910;SDS011;18457;52.432;16.914;2022-08-19T09:36:50;28.60;;;20.90;;
31910;SDS011;18457;52.432;16.914;2022-08-19T09:39:24;25.70;;;19.10;;
31910;SDS011;18457;52.432;16.914;2022-08-19T09:42:04;22.80;;;19.20;;
31910;SDS011;18457;52.432;16.914;2022-08-19T09:44:58;23.10;;;19.00;;
31910;SDS011;18457;52.432;16.914;2022-08-19T09:47:33;23.90;;;19.70;;
31910;SDS011;18457;52.432;16.914;2022-08-19T09:50:10;21.10;;;17.10;;
31910;SDS011;18457;52.432;16.914;2022-08-19T09:52:44;22.80;;;18.80;;
31910;SDS011;18457;52.432;16.914;2022-08-19T09:55:26;22.90;;;19.70;;
31910;SDS011;18457;52.432;16.914;2022-08-19T09:58:01;24.40;;;17.10;;
31910;SDS011;18457;52.432;16.914;2022-08-19T10:00:33;27.20;;;18.20;;
31910;SDS011;18457;52.432;16.914;2022-08-19T10:03:06;23.90;;;18.00;;
31910;SDS011;18457;52.432;16.914;2022-08-19T10:05:40;24.00;;;18.20;;
31910;SDS011;18457;52.432;16.914;2022-08-19T10:08:24;20.30;;;17.30;;
31910;SDS011;18457;52.432;16.914;2022-08-19T10:10:57;22.80;;;17.50;;
31910;SDS011;18457;52.432;16.914;2022-08-19T10:16:21;20.90;;;16.10;;
31910;SDS011;18457;52.432;16.914;2022-08-19T10:18:58;23.50;;;15.00;;
31910;SDS011;18457;52.432;16.914;2022-08-19T10:21:33;18.80;;;14.60;;
31910;SDS011;18457;52.432;16.914;2022-08-19T10:24:08;21.10;;;14.70;;
31910;SDS011;18457;52.432;16.914;2022-08-19T10:29:14;18.20;;;15.90;;
31910;SDS011;18457;52.432;16.914;2022-08-19T10:32:02;16.40;;;14.60;;
31910;SDS011;18457;52.432;16.914;2022-08-19T10:34:37;19.20;;;14.20;;
31910;SDS011;18457;52.432;16.914;2022-08-19T10:37:17;15.70;;;14.10;;
31910;SDS011;18457;52.432;16.914;2022-08-19T10:39:57;18.00;;;14.10;;
31910;SDS011;18457;52.432;16.914;2022-08-19T10:42:28;18.50;;;13.40;;
31910;SDS011;18457;52.432;16.914;2022-08-19T10:45:00;17.60;;;14.30;;
31910;SDS011;18457;52.432;16.914;2022-08-19T10:47:34;20.60;;;14.60;;
31910;SDS011;18457;52.432;16.914;2022-08-19T10:50:07;17.20;;;14.40;;
31910;SDS011;18457;52.432;16.914;2022-08-19T10:53:02;16.90;;;13.20;;
31910;SDS011;18457;52.432;16.914;2022-08-19T10:55:38;17.00;;;14.50;;
31910;SDS011;18457;52.432;16.914;2022-08-19T10:58:27;18.60;;;15.00;;
31910;SDS011;18457;52.432;16.914;2022-08-19T11:00:59;21.40;;;14.80;;
31910;SDS011;18457;52.432;16.914;2022-08-19T11:03:31;18.60;;;15.50;;
31910;SDS011;18457;52.432;16.914;2022-08-19T11:06:04;21.10;;;14.00;;
31910;SDS011;18457;52.432;16.914;2022-08-19T11:08:38;17.50;;;14.10;;
31910;SDS011;18457;52.432;16.914;2022-08-19T11:11:12;15.70;;;13.90;;
31910;SDS011;18457;52.432;16.914;2022-08-19T11:13:44;17.50;;;14.70;;
31910;SDS011;18457;52.432;16.914;2022-08-19T11:16:17;21.20;;;15.40;;
31910;SDS011;18457;52.432;16.914;2022-08-19T11:18:51;16.00;;;14.20;;
31910;SDS011;18457;52.432;16.914;2022-08-19T11:21:28;20.00;;;14.00;;
31910;SDS011;18457;52.432;16.914;2022-08-19T11:24:03;18.50;;;14.70;;
31910;SDS011;18457;52.432;16.914;2022-08-19T11:26:37;19.10;;;14.80;;
31910;SDS011;18457;52.432;16.914;2022-08-19T11:29:11;19.30;;;14.90;;
31910;SDS011;18457;52.432;16.914;2022-08-19T11:31:44;22.10;;;15.20;;
31910;SDS011;18457;52.432;16.914;2022-08-19T11:34:19;19.20;;;16.00;;
31910;SDS011;18457;52.432;16.914;2022-08-19T11:36:53;20.50;;;15.00;;
31910;SDS011;18457;52.432;16.914;2022-08-19T11:39:27;24.20;;;15.20;;
31910;SDS011;18457;52.432;16.914;2022-08-19T11:42:00;17.50;;;15.60;;
31910;SDS011;18457;52.432;16.914;2022-08-19T11:47:24;19.90;;;13.60;;
31910;SDS011;18457;52.432;16.914;2022-08-19T11:49:56;15.60;;;14.00;;
31910;SDS011;18457;52.432;16.914;2022-08-19T11:52:28;20.20;;;13.00;;
31910;SDS011;18457;52.432;16.914;2022-08-19T11:57:30;20.00;;;12.80;;
31910;SDS011;18457;52.432;16.914;2022-08-19T12:00:03;18.70;;;13.50;;
31910;SDS011;18457;52.432;16.914;2022-08-19T12:02:37;19.10;;;12.70;;
31910;SDS011;18457;52.432;16.914;2022-08-19T12:05:10;25.20;;;13.50;;
31910;SDS011;18457;52.432;16.914;2022-08-19T12:07:42;21.90;;;14.20;;
31910;SDS011;18457;52.432;16.914;2022-08-19T12:10:14;15.80;;;12.10;;
31910;SDS011;18457;52.432;16.914;2022-08-19T12:12:50;15.00;;;13.40;;
31910;SDS011;18457;52.432;16.914;2022-08-19T12:15:27;19.70;;;13.20;;
31910;SDS011;18457;52.432;16.914;2022-08-19T12:18:05;15.60;;;13.90;;
31910;SDS011;18457;52.432;16.914;2022-08-19T12:20:38;19.10;;;14.80;;
31910;SDS011;18457;52.432;16.914;2022-08-19T12:23:11;15.40;;;12.90;;
31910;SDS011;18457;52.432;16.914;2022-08-19T12:25:45;22.30;;;13.50;;
31910;SDS011;18457;52.432;16.914;2022-08-19T12:28:22;14.90;;;12.60;;
31910;SDS011;18457;52.432;16.914;2022-08-19T12:30:55;15.30;;;13.20;;
31910;SDS011;18457;52.432;16.914;2022-08-19T12:33:27;15.00;;;12.40;;
31910;SDS011;18457;52.432;16.914;2022-08-19T12:36:02;21.20;;;12.80;;
31910;SDS011;18457;52.432;16.914;2022-08-19T12:38:36;15.90;;;14.00;;
31910;SDS011;18457;52.432;16.914;2022-08-19T12:41:10;17.10;;;13.40;;
31910;SDS011;18457;52.432;16.914;2022-08-19T12:43:44;16.30;;;14.10;;
31910;SDS011;18457;52.432;16.914;2022-08-19T12:46:18;20.40;;;13.30;;
31910;SDS011;18457;52.432;16.914;2022-08-19T12:48:53;23.60;;;13.80;;
31910;SDS011;18457;52.432;16.914;2022-08-19T12:51:26;21.40;;;17.40;;
31910;SDS011;18457;52.432;16.914;2022-08-19T12:53:58;22.60;;;17.50;;
31910;SDS011;18457;52.432;16.914;2022-08-19T12:56:31;24.20;;;17.50;;
31910;SDS011;18457;52.432;16.914;2022-08-19T12:59:03;21.40;;;17.50;;
31910;SDS011;18457;52.432;16.914;2022-08-19T13:01:36;19.50;;;17.40;;
31910;SDS011;18457;52.432;16.914;2022-08-19T13:04:10;19.50;;;17.40;;
31910;SDS011;18457;52.432;16.914;2022-08-19T13:06:41;21.00;;;16.60;;
31910;SDS011;18457;52.432;16.914;2022-08-19T13:09:13;23.50;;;18.70;;
31910;SDS011;18457;52.432;16.914;2022-08-19T13:11:45;26.30;;;17.40;;
31910;SDS011;18457;52.432;16.914;2022-08-19T13:14:17;27.60;;;18.50;;
31910;SDS011;18457;52.432;16.914;2022-08-19T13:16:49;22.50;;;16.60;;
31910;SDS011;18457;52.432;16.914;2022-08-19T13:19:20;23.80;;;16.70;;
31910;SDS011;18457;52.432;16.914;2022-08-19T13:21:53;21.00;;;16.60;;
31910;SDS011;18457;52.432;16.914;2022-08-19T13:24:28;39.20;;;19.20;;
31910;SDS011;18457;52.432;16.914;2022-08-19T13:27:02;20.30;;;18.00;;
31910;SDS011;18457;52.432;16.914;2022-08-19T13:29:35;23.70;;;17.40;;
31910;SDS011;18457;52.432;16.914;2022-08-19T13:32:26;23.90;;;17.30;;
31910;SDS011;18457;52.432;16.914;2022-08-19T13:35:17;19.40;;;16.90;;
31910;SDS011;18457;52.432;16.914;2022-08-19T13:37:50;19.50;;;16.70;;
31910;SDS011;18457;52.432;16.914;2022-08-19T13:42:55;19.60;;;17.10;;
31910;SDS011;18457;52.432;16.914;2022-08-19T13:45:27;21.40;;;18.90;;
31910;SDS011;18457;52.432;16.914;2022-08-19T13:48:02;21.80;;;18.40;;
31910;SDS011;18457;52.432;16.914;2022-08-19T13:50:39;23.80;;;19.00;;
31910;SDS011;18457;52.432;16.914;2022-08-19T13:53:13;21.50;;;17.40;;
31910;SDS011;18457;52.432;16.914;2022-08-19T13:55:46;19.80;;;17.70;;
31910;SDS011;18457;52.432;16.914;2022-08-19T13:58:19;20.50;;;18.00;;
31910;SDS011;18457;52.432;16.914;2022-08-19T14:00:54;26.70;;;17.80;;
31910;SDS011;18457;52.432;16.914;2022-08-19T14:03:26;20.30;;;18.20;;
31910;SDS011;18457;52.432;16.914;2022-08-19T14:05:59;22.10;;;18.90;;
31910;SDS011;18457;52.432;16.914;2022-08-19T14:08:31;19.30;;;17.30;;
31910;SDS011;18457;52.432;16.914;2022-08-19T14:11:04;23.30;;;19.60;;
31910;SDS011;18457;52.432;16.914;2022-08-19T14:13:36;23.10;;;18.10;;
31910;SDS011;18457;52.432;16.914;2022-08-19T14:16:09;21.10;;;18.80;;
31910;SDS011;18457;52.432;16.914;2022-08-19T14:18:42;24.50;;;18.40;;
31910;SDS011;18457;52.432;16.914;2022-08-19T14:21:16;19.70;;;17.60;;
31910;SDS011;18457;52.432;16.914;2022-08-19T14:23:51;23.20;;;18.30;;
31910;SDS011;18457;52.432;16.914;2022-08-19T14:26:23;27.90;;;18.80;;
31910;SDS011;18457;52.432;16.914;2022-08-19T14:31:26;22.10;;;17.60;;
31910;SDS011;18457;52.432;16.914;2022-08-19T14:33:59;22.60;;;18.00;;
31910;SDS011;18457;52.432;16.914;2022-08-19T14:36:30;22.10;;;17.50;;
31910;SDS011;18457;52.432;16.914;2022-08-19T14:39:07;22.90;;;19.50;;
31910;SDS011;18457;52.432;16.914;2022-08-19T14:41:40;22.70;;;19.50;;
31910;SDS011;18457;52.432;16.914;2022-08-19T14:44:14;20.50;;;18.30;;
31910;SDS011;18457;52.432;16.914;2022-08-19T14:46:47;23.00;;;20.50;;
31910;SDS011;18457;52.432;16.914;2022-08-19T14:49:19;28.30;;;20.20;;
31910;SDS011;18457;52.432;16.914;2022-08-19T14:52:03;22.80;;;19.50;;
31910;SDS011;18457;52.432;16.914;2022-08-19T14:54:35;27.10;;;20.20;;
31910;SDS011;18457;52.432;16.914;2022-08-19T14:57:07;22.00;;;18.80;;
31910;SDS011;18457;52.432;16.914;2022-08-19T14:59:43;20.60;;;18.50;;
31910;SDS011;18457;52.432;16.914;2022-08-19T15:02:15;21.70;;;18.00;;
31910;SDS011;18457;52.432;16.914;2022-08-19T15:05:03;19.80;;;17.80;;
31910;SDS011;18457;52.432;16.914;2022-08-19T15:07:36;22.00;;;18.40;;
31910;SDS011;18457;52.432;16.914;2022-08-19T15:12:42;22.00;;;18.40;;
31910;SDS011;18457;52.432;16.914;2022-08-19T15:15:19;19.10;;;17.10;;
31910;SDS011;18457;52.432;16.914;2022-08-19T15:20:21;23.20;;;18.20;;
31910;SDS011;18457;52.432;16.914;2022-08-19T15:22:53;26.80;;;17.70;;
31910;SDS011;18457;52.432;16.914;2022-08-19T15:25:25;19.60;;;17.10;;
31910;SDS011;18457;52.432;16.914;2022-08-19T15:27:58;17.20;;;15.40;;
31910;SDS011;18457;52.432;16.914;2022-08-19T15:30:30;18.80;;;15.70;;
31910;SDS011;18457;52.432;16.914;2022-08-19T15:33:02;17.20;;;15.50;;
31910;SDS011;18457;52.432;16.914;2022-08-19T15:35:34;33.10;;;15.80;;
31910;SDS011;18457;52.432;16.914;2022-08-19T15:38:08;17.10;;;15.40;;